Observation data for Jayton on 06/15/2019      Previous  Date  Next       Current Mesonet Observations  Soil Data  Daily Summary Page  Observations in Plain Language
KJTS 150500Z 18012G17KT 27/16 A2981 RMK A01 T02690163  RH  055%=      5-min Rain = 0
KJTS 150505Z 18012G18KT 27/16 A2981 RMK A01 T02680164  RH  055%=      5-min Rain = 0
KJTS 150510Z 18012G18KT 27/16 A2981 RMK A01 T02680164  RH  055%=      5-min Rain = 0
KJTS 150515Z 18013G21KT 27/16 A2981 RMK A01 T02680164  RH  055%=      5-min Rain = 0
KJTS 150520Z 18011G16KT 27/16 A2981 RMK A01 T02660163  RH  056%=      5-min Rain = 0
KJTS 150525Z 18011G16KT 27/16 A2981 RMK A01 T02650163  RH  056%=      5-min Rain = 0
KJTS 150530Z 18010KT 26/16 A298 RMK A01 T02640163  RH  057%=      5-min Rain = 0
KJTS 150535Z 18011G16KT 26/16 A298 RMK A01 T02630163  RH  057%=      5-min Rain = 0
KJTS 150540Z 18010G15KT 26/16 A2981 RMK A01 T02630163  RH  057%=      5-min Rain = 0
KJTS 150545Z 18010KT 26/16 A2981 RMK A01 T02610163  RH  058%=      5-min Rain = 0
KJTS 150550Z 18010KT 26/16 A2981 RMK A01 T02600163  RH  058%=      5-min Rain = 0
KJTS 150555Z 18011KT 26/16 A2981 RMK A01 T02600163  RH  058%=      5-min Rain = 0
KJTS 150600Z 18012G18KT 26/16 A2981 RMK A01 T02610162  RH  057%=      5-min Rain = 0
KJTS 150605Z 18013G18KT 26/16 A2981 RMK A01 T02620161  RH  057%=      5-min Rain = 0
KJTS 150610Z 18014G21KT 26/16 A2981 RMK A01 T02630161  RH  056%=      5-min Rain = 0
KJTS 150615Z 18012G17KT 26/16 A2981 RMK A01 T02610161  RH  057%=      5-min Rain = 0
KJTS 150620Z 18013G19KT 26/16 A2981 RMK A01 T02610161  RH  057%=      5-min Rain = 0
KJTS 150625Z 18013G19KT 26/16 A2981 RMK A01 T02620161  RH  056%=      5-min Rain = 0
KJTS 150630Z 19013KT 26/16 A2981 RMK A01 T02620161  RH  056%=      5-min Rain = 0
KJTS 150635Z 19012G18KT 26/16 A2981 RMK A01 T02620162  RH  057%=      5-min Rain = 0
KJTS 150640Z 20010G15KT 26/16 A2981 RMK A01 T02610162  RH  057%=      5-min Rain = 0
KJTS 150645Z 20009KT 26/16 A2981 RMK A01 T02600163  RH  058%=      5-min Rain = 0
KJTS 150650Z 20009KT 26/16 A2981 RMK A01 T02590162  RH  058%=      5-min Rain = 0
KJTS 150655Z 20008KT 26/16 A2981 RMK A01 T02580162  RH  058%=      5-min Rain = 0
KJTS 150700Z 20008KT 26/16 A2981 RMK A01 T02580162  RH  058%=      5-min Rain = 0
KJTS 150705Z 20007KT 26/16 A2981 RMK A01 T02550162  RH  059%=      5-min Rain = 0
KJTS 150710Z 20008G13KT 25/16 A2981 RMK A01 T02540162  RH  059%=      5-min Rain = 0
KJTS 150715Z 20009KT 26/16 A2981 RMK A01 T02560162  RH  059%=      5-min Rain = 0
KJTS 150720Z 20009KT 26/16 A2981 RMK A01 T02550162  RH  059%=      5-min Rain = 0
KJTS 150725Z 20009KT 26/16 A298 RMK A01 T02550162  RH  059%=      5-min Rain = 0
KJTS 150730Z 20010G16KT 26/16 A298 RMK A01 T02560162  RH  059%=      5-min Rain = 0
KJTS 150735Z 20009G14KT 26/16 A298 RMK A01 T02560162  RH  059%=      5-min Rain = 0
KJTS 150740Z 20009KT 25/16 A298 RMK A01 T02540162  RH  060%=      5-min Rain = 0
KJTS 150745Z 20009G14KT 25/16 A298 RMK A01 T02520162  RH  060%=      5-min Rain = 0
KJTS 150750Z 21009KT 25/16 A298 RMK A01 T02510163  RH  061%=      5-min Rain = 0
KJTS 150755Z 20010KT 25/16 A298 RMK A01 T02520162  RH  060%=      5-min Rain = 0
KJTS 150800Z 20010KT 25/16 A298 RMK A01 T02490163  RH  061%=      5-min Rain = 0
KJTS 150805Z 20011KT 25/16 A298 RMK A01 T02510162  RH  060%=      5-min Rain = 0
KJTS 150810Z 20009KT 25/16 A2979 RMK A01 T02500162  RH  061%=      5-min Rain = 0
KJTS 150815Z 20010KT 25/16 A2979 RMK A01 T02480162  RH  062%=      5-min Rain = 0
KJTS 150820Z 20010KT 25/16 A2979 RMK A01 T02480162  RH  062%=      5-min Rain = 0
KJTS 150825Z 20009KT 25/16 A2978 RMK A01 T02480162  RH  062%=      5-min Rain = 0
KJTS 150830Z 20009KT 25/16 A2978 RMK A01 T02460162  RH  062%=      5-min Rain = 0
KJTS 150835Z 20010G15KT 25/16 A2978 RMK A01 T02470162  RH  062%=      5-min Rain = 0
KJTS 150840Z 19011G16KT 25/16 A2978 RMK A01 T02480161  RH  061%=      5-min Rain = 0
KJTS 150845Z 19010KT 25/16 A2978 RMK A01 T02480161  RH  062%=      5-min Rain = 0
KJTS 150850Z 19010G15KT 25/16 A2977 RMK A01 T02470161  RH  062%=      5-min Rain = 0
KJTS 150855Z 19010KT 25/16 A2977 RMK A01 T02480161  RH  061%=      5-min Rain = 0
KJTS 150900Z 20009G15KT 25/16 A2977 RMK A01 T02470161  RH  062%=      5-min Rain = 0
KJTS 150905Z 20008KT 25/16 A2977 RMK A01 T02450161  RH  062%=      5-min Rain = 0
KJTS 150910Z 20008KT 24/16 A2977 RMK A01 T02440161  RH  063%=      5-min Rain = 0
KJTS 150915Z 20008KT 24/16 A2977 RMK A01 T02440161  RH  063%=      5-min Rain = 0
KJTS 150920Z 21007KT 24/16 A2977 RMK A01 T02430161  RH  063%=      5-min Rain = 0
KJTS 150925Z 21008G13KT 24/16 A2977 RMK A01 T02440160  RH  062%=      5-min Rain = 0
KJTS 150930Z 22007KT 24/16 A2977 RMK A01 T02440160  RH  062%=      5-min Rain = 0
KJTS 150935Z 23006KT 24/16 A2977 RMK A01 T02420160  RH  063%=      5-min Rain = 0
KJTS 150940Z 24007KT 24/16 A2977 RMK A01 T02400160  RH  064%=      5-min Rain = 0
KJTS 150945Z 24007KT 24/16 A2977 RMK A01 T02410159  RH  063%=      5-min Rain = 0
KJTS 150950Z 23008KT 24/16 A2977 RMK A01 T02410159  RH  063%=      5-min Rain = 0
KJTS 150955Z 23009G14KT 24/16 A2977 RMK A01 T02390159  RH  064%=      5-min Rain = 0
KJTS 151000Z 23010G16KT 24/16 A2977 RMK A01 T02390159  RH  064%=      5-min Rain = 0
KJTS 151005Z 22011KT 24/16 A2977 RMK A01 T02410159  RH  063%=      5-min Rain = 0
KJTS 151010Z 22012G17KT 24/16 A2976 RMK A01 T02420159  RH  063%=      5-min Rain = 0
KJTS 151015Z 21012G17KT 24/16 A2976 RMK A01 T02430159  RH  062%=      5-min Rain = 0
KJTS 151020Z 21012KT 24/16 A2976 RMK A01 T02420159  RH  063%=      5-min Rain = 0
KJTS 151025Z 21012KT 24/16 A2976 RMK A01 T02430159  RH  062%=      5-min Rain = 0
KJTS 151030Z 21012KT 24/16 A2975 RMK A01 T02420159  RH  063%=      5-min Rain = 0
KJTS 151035Z 22011KT 24/16 A2976 RMK A01 T02410159  RH  063%=      5-min Rain = 0
KJTS 151040Z 22012KT 24/16 A2976 RMK A01 T02420159  RH  063%=      5-min Rain = 0
KJTS 151045Z 21011G17KT 24/16 A2976 RMK A01 T02420159  RH  063%=      5-min Rain = 0
KJTS 151050Z 21011KT 24/16 A2976 RMK A01 T02390159  RH  064%=      5-min Rain = 0
KJTS 151055Z 21013G18KT 24/16 A2976 RMK A01 T02410159  RH  063%=      5-min Rain = 0
KJTS 151100Z 21012G18KT 24/16 A2976 RMK A01 T02420159  RH  063%=      5-min Rain = 0
KJTS 151105Z 21014G19KT 24/16 A2976 RMK A01 T02420159  RH  063%=      5-min Rain = 0
KJTS 151110Z 21011G19KT 24/16 A2976 RMK A01 T02410159  RH  063%=      5-min Rain = 0
KJTS 151115Z 22012KT 24/16 A2976 RMK A01 T02400159  RH  063%=      5-min Rain = 0
KJTS 151120Z 22013G19KT 24/16 A2977 RMK A01 T02390159  RH  064%=      5-min Rain = 0
KJTS 151125Z 21013G18KT 24/16 A2977 RMK A01 T02390159  RH  064%=      5-min Rain = 0
KJTS 151130Z 21013G18KT 24/16 A2977 RMK A01 T02390159  RH  064%=      5-min Rain = 0
KJTS 151135Z 21015G21KT 24/16 A2977 RMK A01 T02400158  RH  063%=      5-min Rain = 0
KJTS 151140Z 20012G19KT 24/16 A2977 RMK A01 T02380159  RH  064%=      5-min Rain = 0
KJTS 151145Z 20012G18KT 24/16 A2977 RMK A01 T02380159  RH  064%=      5-min Rain = 0
KJTS 151150Z 20012G18KT 24/16 A2977 RMK A01 T02360158  RH  065%=      5-min Rain = 0
KJTS 151155Z 20012G18KT 24/16 A2977 RMK A01 T02370158  RH  064%=      5-min Rain = 0
KJTS 151200Z 20012G17KT 24/16 A2977 RMK A01 T02380158  RH  064%=      5-min Rain = 0
KJTS 151205Z 21011G17KT 24/16 A2977 RMK A01 T02380158  RH  064%=      5-min Rain = 0
KJTS 151210Z 21011G16KT 24/16 A2978 RMK A01 T02390158  RH  064%=      5-min Rain = 0
KJTS 151215Z 21012G19KT 24/16 A2978 RMK A01 T02380159  RH  064%=      5-min Rain = 0
KJTS 151220Z 21011G17KT 24/16 A2978 RMK A01 T02380159  RH  064%=      5-min Rain = 0
KJTS 151225Z 21011G16KT 24/16 A2978 RMK A01 T02400159  RH  063%=      5-min Rain = 0
KJTS 151230Z 20011KT 24/16 A2978 RMK A01 T02410158  RH  063%=      5-min Rain = 0
KJTS 151235Z 20009G14KT 24/16 A2978 RMK A01 T02420159  RH  063%=      5-min Rain = 0
KJTS 151240Z 20010KT 24/16 A2978 RMK A01 T02440158  RH  062%=      5-min Rain = 0
KJTS 151245Z 20010KT 25/16 A2978 RMK A01 T02450159  RH  061%=      5-min Rain = 0
KJTS 151250Z 20011G16KT 25/16 A2978 RMK A01 T02460158  RH  060%=      5-min Rain = 0
KJTS 151255Z 20010G15KT 25/16 A2978 RMK A01 T02480158  RH  060%=      5-min Rain = 0
KJTS 151300Z 21009G15KT 25/16 A2978 RMK A01 T02490158  RH  060%=      5-min Rain = 0
KJTS 151305Z 21010KT 25/16 A2978 RMK A01 T02500158  RH  059%=      5-min Rain = 0
KJTS 151310Z 22007KT 25/16 A2979 RMK A01 T02520159  RH  059%=      5-min Rain = 0
KJTS 151315Z 23007G14KT 25/16 A2979 RMK A01 T02520159  RH  059%=      5-min Rain = 0
KJTS 151320Z 22007G12KT 25/16 A2979 RMK A01 T02540160  RH  059%=      5-min Rain = 0
KJTS 151325Z 23008G14KT 26/16 A2979 RMK A01 T02560159  RH  058%=      5-min Rain = 0
KJTS 151330Z 23006KT 26/16 A2979 RMK A01 T02570161  RH  058%=      5-min Rain = 0
KJTS 151335Z 23008KT 26/16 A298 RMK A01 T02590161  RH  058%=      5-min Rain = 0
KJTS 151340Z 22007KT 26/16 A298 RMK A01 T02590161  RH  057%=      5-min Rain = 0
KJTS 151345Z 21010G17KT 26/16 A298 RMK A01 T02620162  RH  057%=      5-min Rain = 0
KJTS 151350Z 21011KT 26/16 A298 RMK A01 T02630159  RH  055%=      5-min Rain = 0
KJTS 151355Z 20012KT 26/16 A298 RMK A01 T02640159  RH  055%=      5-min Rain = 0
KJTS 151400Z 20013KT 27/16 A2979 RMK A01 T02650159  RH  055%=      5-min Rain = 0
KJTS 151405Z 20012G19KT 27/16 A2979 RMK A01 T02650157  RH  054%=      5-min Rain = 0
KJTS 151410Z 20013KT 27/16 A2979 RMK A01 T02670158  RH  054%=      5-min Rain = 0
KJTS 151415Z 20012G18KT 27/16 A2979 RMK A01 T02680159  RH  054%=      5-min Rain = 0
KJTS 151420Z 20012KT 27/16 A2979 RMK A01 T02700160  RH  053%=      5-min Rain = 0
KJTS 151425Z 20009KT 27/16 A2979 RMK A01 T02720164  RH  054%=      5-min Rain = 0
KJTS 151430Z 20012G18KT 27/16 A298 RMK A01 T02740161  RH  053%=      5-min Rain = 0
KJTS 151435Z 20013G18KT 27/16 A298 RMK A01 T02740158  RH  052%=      5-min Rain = 0
KJTS 151440Z 21011KT 27/16 A298 RMK A01 T02740160  RH  052%=      5-min Rain = 0
KJTS 151445Z 20012KT 28/16 A298 RMK A01 T02770163  RH  052%=      5-min Rain = 0
KJTS 151450Z 20013KT 28/16 A298 RMK A01 T02760160  RH  051%=      5-min Rain = 0
KJTS 151455Z 21012KT 28/16 A298 RMK A01 T02770161  RH  051%=      5-min Rain = 0
KJTS 151500Z 21011G17KT 28/16 A298 RMK A01 T02790162  RH  051%=      5-min Rain = 0
KJTS 151505Z 21013KT 28/16 A298 RMK A01 T02810159  RH  050%=      5-min Rain = 0
KJTS 151510Z 21012KT 28/16 A298 RMK A01 T02810160  RH  050%=      5-min Rain = 0
KJTS 151515Z 21013KT 28/16 A298 RMK A01 T02830160  RH  050%=      5-min Rain = 0
KJTS 151520Z 20011G17KT 28/16 A298 RMK A01 T02840162  RH  050%=      5-min Rain = 0
KJTS 151525Z 21013KT 29/16 A298 RMK A01 T02850161  RH  049%=      5-min Rain = 0
KJTS 151530Z 21012KT 28/16 A298 RMK A01 T02840161  RH  050%=      5-min Rain = 0
KJTS 151535Z 20011G16KT 29/16 A298 RMK A01 T02880163  RH  049%=      5-min Rain = 0
KJTS 151540Z 21014KT 29/16 A298 RMK A01 T02890161  RH  048%=      5-min Rain = 0
KJTS 151545Z 21013KT 29/16 A2979 RMK A01 T02880161  RH  048%=      5-min Rain = 0
KJTS 151550Z 20012KT 29/16 A2979 RMK A01 T02920162  RH  048%=      5-min Rain = 0
KJTS 151555Z 21011G16KT 29/17 A2979 RMK A01 T02940166  RH  048%=      5-min Rain = 0
KJTS 151600Z 20013KT 30/16 A2979 RMK A01 T02950162  RH  047%=      5-min Rain = 0
KJTS 151605Z 20011KT 30/16 A2979 RMK A01 T02950163  RH  047%=      5-min Rain = 0
KJTS 151610Z 21011KT 30/17 A2979 RMK A01 T02970166  RH  048%=      5-min Rain = 0
KJTS 151615Z 20012KT 30/17 A2979 RMK A01 T02990167  RH  047%=      5-min Rain = 0
KJTS 151620Z 21010G15KT 30/17 A2979 RMK A01 T03030171  RH  047%=      5-min Rain = 0
KJTS 151625Z 21013KT 30/17 A2979 RMK A01 T03010165  RH  046%=      5-min Rain = 0
KJTS 151630Z 20011KT 30/17 A2979 RMK A01 T03020166  RH  046%=      5-min Rain = 0
KJTS 151635Z 21012KT 30/17 A2979 RMK A01 T03030167  RH  046%=      5-min Rain = 0
KJTS 151640Z 21012KT 30/17 A2979 RMK A01 T03040166  RH  046%=      5-min Rain = 0
KJTS 151645Z 20011KT 31/17 A2978 RMK A01 T03070167  RH  045%=      5-min Rain = 0
KJTS 151650Z 21011KT 31/17 A2978 RMK A01 T03080169  RH  046%=      5-min Rain = 0
KJTS 151655Z 20012G17KT 31/17 A2978 RMK A01 T03110169  RH  045%=      5-min Rain = 0
KJTS 151700Z 21009KT 31/17 A2978 RMK A01 T03130171  RH  045%=      5-min Rain = 0
KJTS 151705Z 22010KT 32/17 A2979 RMK A01 T03150167  RH  043%=      5-min Rain = 0
KJTS 151710Z 23009G14KT 32/17 A2978 RMK A01 T03170170  RH  044%=      5-min Rain = 0
KJTS 151715Z 24008G13KT 32/16 A2979 RMK A01 T03180161  RH  041%=      5-min Rain = 0
KJTS 151720Z 25009G14KT 32/16 A2979 RMK A01 T03200159  RH  040%=      5-min Rain = 0
KJTS 151725Z 25007G13KT 32/16 A2979 RMK A01 T03210157  RH  039%=      5-min Rain = 0
KJTS 151730Z 26008KT 33/16 A2979 RMK A01 T03260161  RH  039%=      5-min Rain = 0
KJTS 151735Z 24008G13KT 33/16 A2979 RMK A01 T03250156  RH  038%=      5-min Rain = 0
KJTS 151740Z 24008G13KT 33/16 A2979 RMK A01 T03260159  RH  038%=      5-min Rain = 0
KJTS 151745Z 23007G12KT 33/16 A2979 RMK A01 T03280158  RH  038%=      5-min Rain = 0
KJTS 151750Z 21007KT 33/16 A2979 RMK A01 T03310160  RH  038%=      5-min Rain = 0
KJTS 151755Z 21007KT 33/16 A2978 RMK A01 T03310158  RH  037%=      5-min Rain = 0
KJTS 151800Z 20007G13KT 33/16 A2978 RMK A01 T03340160  RH  037%=      5-min Rain = 0
KJTS 151805Z 20008KT 34/16 A2978 RMK A01 T03360160  RH  037%=      5-min Rain = 0
KJTS 151810Z 21009KT 34/16 A2978 RMK A01 T03370158  RH  036%=      5-min Rain = 0
KJTS 151815Z 19009KT 34/16 A2977 RMK A01 T03380159  RH  036%=      5-min Rain = 0
KJTS 151820Z 18007KT 34/16 A2977 RMK A01 T03390162  RH  036%=      5-min Rain = 0
KJTS 151825Z 20009KT 34/16 A2977 RMK A01 T03410160  RH  035%=      5-min Rain = 0
KJTS 151830Z 21008KT 34/16 A2977 RMK A01 T03410164  RH  037%=      5-min Rain = 0
KJTS 151835Z 19007KT 34/16 A2977 RMK A01 T03430158  RH  035%=      5-min Rain = 0
KJTS 151840Z 19008KT 35/16 A2977 RMK A01 T03450160  RH  035%=      5-min Rain = 0
KJTS 151845Z 18007KT 35/16 A2977 RMK A01 T03460159  RH  034%=      5-min Rain = 0
KJTS 151850Z 19007KT 35/16 A2977 RMK A01 T03490158  RH  034%=      5-min Rain = 0
KJTS 151855Z 20010KT 35/15 A2977 RMK A01 T03500151  RH  032%=      5-min Rain = 0
KJTS 151900Z 24006KT 35/15 A2977 RMK A01 T03470154  RH  033%=      5-min Rain = 0
KJTS 151905Z 21008KT 35/15 A2976 RMK A01 T03500150  RH  032%=      5-min Rain = 0
KJTS 151910Z 23008KT 35/14 A2976 RMK A01 T03510143  RH  030%=      5-min Rain = 0
KJTS 151915Z 23005KT 35/14 A2976 RMK A01 T03520138  RH  029%=      5-min Rain = 0
KJTS 151920Z 24007KT 35/15 A2976 RMK A01 T03540146  RH  030%=      5-min Rain = 0
KJTS 151925Z 23006KT 35/15 A2976 RMK A01 T03530148  RH  031%=      5-min Rain = 0
KJTS 151930Z 21006KT 36/15 A2976 RMK A01 T03550150  RH  031%=      5-min Rain = 0
KJTS 151935Z 19006G11KT 36/14 A2975 RMK A01 T03570138  RH  028%=      5-min Rain = 0
KJTS 151940Z 19007KT 36/13 A2975 RMK A01 T03590134  RH  027%=      5-min Rain = 0
KJTS 151945Z 19006KT 36/14 A2975 RMK A01 T03610140  RH  028%=      5-min Rain = 0
KJTS 151950Z 20005KT 36/14 A2975 RMK A01 T03600144  RH  029%=      5-min Rain = 0
KJTS 151955Z 20006KT 36/15 A2975 RMK A01 T03640154  RH  030%=      5-min Rain = 0
KJTS 152000Z 20007KT 36/13 A2975 RMK A01 T03630134  RH  027%=      5-min Rain = 0
KJTS 152005Z 19005KT 36/15 A2975 RMK A01 T03640151  RH  030%=      5-min Rain = 0
KJTS 152010Z 23006KT 36/14 A2975 RMK A01 T03640137  RH  027%=      5-min Rain = 0
KJTS 152015Z 22005KT 36/14 A2975 RMK A01 T03600141  RH  028%=      5-min Rain = 0
KJTS 152020Z 21005KT 36/14 A2975 RMK A01 T03550142  RH  029%=      5-min Rain = 0
KJTS 152025Z 19005KT 36/15 A2975 RMK A01 T03590145  RH  029%=      5-min Rain = 0
KJTS 152030Z 17006KT 36/16 A2975 RMK A01 T03630155  RH  031%=      5-min Rain = 0
KJTS 152035Z 16005KT 37/16 A2974 RMK A01 T03650158  RH  031%=      5-min Rain = 0
KJTS 152040Z 16006KT 37/15 A2974 RMK A01 T03660153  RH  030%=      5-min Rain = 0
KJTS 152045Z 16006G11KT 37/15 A2974 RMK A01 T03680154  RH  030%=      5-min Rain = 0
KJTS 152050Z 19008KT 36/14 A2974 RMK A01 T03620143  RH  028%=      5-min Rain = 0
KJTS 152055Z 20006KT 36/15 A2974 RMK A01 T03640146  RH  029%=      5-min Rain = 0
KJTS 152100Z 17005KT 35/14 A2974 RMK A01 T03540142  RH  029%=      5-min Rain = 0
KJTS 152105Z 16006KT 35/14 A2974 RMK A01 T03520140  RH  029%=      5-min Rain = 0
KJTS 152110Z 19006KT 36/15 A2973 RMK A01 T03600154  RH  031%=      5-min Rain = 0
KJTS 152115Z 18006KT 37/15 A2973 RMK A01 T03680146  RH  028%=      5-min Rain = 0
KJTS 152120Z 19007KT 37/14 A2973 RMK A01 T03710140  RH  026%=      5-min Rain = 0
KJTS 152125Z 19006KT 37/13 A2973 RMK A01 T03700132  RH  025%=      5-min Rain = 0
KJTS 152130Z 17005KT 37/14 A2972 RMK A01 T03650139  RH  027%=      5-min Rain = 0
KJTS 152135Z 15006KT 36/15 A2972 RMK A01 T03600151  RH  030%=      5-min Rain = 0
KJTS 152140Z 16005KT 37/16 A2972 RMK A01 T03650156  RH  030%=      5-min Rain = 0
KJTS 152145Z 16006KT 37/15 A2972 RMK A01 T03690154  RH  029%=      5-min Rain = 0
KJTS 152150Z 17006KT 37/15 A2972 RMK A01 T03650154  RH  030%=      5-min Rain = 0
KJTS 152155Z 17006KT 36/15 A2972 RMK A01 T03570151  RH  031%=      5-min Rain = 0
KJTS 152200Z 17005KT 35/15 A2972 RMK A01 T03480152  RH  032%=      5-min Rain = 0
KJTS 152205Z 15004KT 34/17 A2972 RMK A01 T03420168  RH  037%=      5-min Rain = 0
KJTS 152210Z 13007KT 34/17 A2971 RMK A01 T03390173  RH  039%=      5-min Rain = 0
KJTS 152215Z 14005KT 34/17 A2971 RMK A01 T03420171  RH  038%=      5-min Rain = 0
KJTS 152220Z 15005KT 35/17 A2971 RMK A01 T03460171  RH  037%=      5-min Rain = 0
KJTS 152225Z 15006KT 35/18 A2971 RMK A01 T03530176  RH  037%=      5-min Rain = 0
KJTS 152230Z 16006KT 36/17 A2971 RMK A01 T03560170  RH  035%=      5-min Rain = 0
KJTS 152235Z 15005KT 35/18 A2971 RMK A01 T03530178  RH  037%=      5-min Rain = 0
KJTS 152240Z 15005KT 36/18 A297 RMK A01 T03600176  RH  036%=      5-min Rain = 0
KJTS 152245Z 15006KT 36/17 A297 RMK A01 T03630174  RH  035%=      5-min Rain = 0
KJTS 152250Z 15008KT 36/17 A297 RMK A01 T03610168  RH  034%=      5-min Rain = 0
KJTS 152255Z 14009KT 36/18 A297 RMK A01 T03570175  RH  036%=      5-min Rain = 0
KJTS 152300Z 14011KT 35/18 A2969 RMK A01 T03500182  RH  039%=      5-min Rain = 0
KJTS 152305Z 14010KT 34/19 A2969 RMK A01 T03430186  RH  042%=      5-min Rain = 0
KJTS 152310Z 13010KT 34/19 A2969 RMK A01 T03440191  RH  043%=      5-min Rain = 0
KJTS 152315Z 13008KT 34/20 A2969 RMK A01 T03420196  RH  045%=      5-min Rain = 0
KJTS 152320Z 14010G15KT 34/20 A2969 RMK A01 T03360195  RH  046%=      5-min Rain = 0
KJTS 152325Z 14011KT 33/19 A2969 RMK A01 T03340192  RH  046%=      5-min Rain = 0
KJTS 152330Z 14010KT 33/19 A297 RMK A01 T03310192  RH  046%=      5-min Rain = 0
KJTS 152335Z 14010KT 33/19 A2969 RMK A01 T03300192  RH  047%=      5-min Rain = 0
KJTS 152340Z 14010G15KT 33/19 A2969 RMK A01 T03290192  RH  047%=      5-min Rain = 0
KJTS 152345Z 14009KT 33/19 A2969 RMK A01 T03270194  RH  048%=      5-min Rain = 0
KJTS 152350Z 14009KT 32/19 A2969 RMK A01 T03240194  RH  049%=      5-min Rain = 0
KJTS 152355Z 13010G16KT 32/19 A2969 RMK A01 T03230194  RH  049%=      5-min Rain = 0
KJTS 160000Z 13011KT 32/19 A2969 RMK A01 T03220193  RH  049%=      5-min Rain = 0
KJTS 160005Z 13010KT 32/19 A2969 RMK A01 T03210194  RH  050%=      5-min Rain = 0
KJTS 160010Z 13011KT 32/19 A2969 RMK A01 T03190191  RH  049%=      5-min Rain = 0
KJTS 160015Z 15013G18KT 32/19 A297 RMK A01 T03210191  RH  049%=      5-min Rain = 0
KJTS 160020Z 14011KT 32/19 A297 RMK A01 T03210194  RH  050%=      5-min Rain = 0
KJTS 160025Z 14008KT 32/19 A297 RMK A01 T03210193  RH  050%=      5-min Rain = 0
KJTS 160030Z 14007KT 32/19 A297 RMK A01 T03190190  RH  049%=      5-min Rain = 0
KJTS 160035Z 15007KT 32/18 A297 RMK A01 T03160184  RH  048%=      5-min Rain = 0
KJTS 160040Z 16008KT 31/17 A297 RMK A01 T03120166  RH  044%=      5-min Rain = 0
KJTS 160045Z 17010KT 31/14 A2971 RMK A01 T03100140  RH  037%=      5-min Rain = 0
KJTS 160050Z 18011KT 31/13 A2971 RMK A01 T03090129  RH  035%=      5-min Rain = 0
KJTS 160055Z 16012KT 29/15 A2971 RMK A01 T02870153  RH  046%=      5-min Rain = 0
KJTS 160100Z 15011KT 27/16 A2971 RMK A01 T02730161  RH  053%=      5-min Rain = 0
KJTS 160105Z 14009KT 27/17 A2971 RMK A01 T02710166  RH  055%=      5-min Rain = 0
KJTS 160110Z 13009KT 27/17 A2971 RMK A01 T02680172  RH  058%=      5-min Rain = 0
KJTS 160115Z 14010KT 27/18 A297 RMK A01 T02710175  RH  059%=      5-min Rain = 0
KJTS 160120Z 15009KT 28/18 A297 RMK A01 T02750184  RH  061%=      5-min Rain = 0
KJTS 160125Z 15010KT 28/19 A297 RMK A01 T02790192  RH  063%=      5-min Rain = 0
KJTS 160130Z 15011KT 29/20 A2969 RMK A01 T02850196  RH  062%=      5-min Rain = 0
KJTS 160135Z 15011G18KT 29/20 A297 RMK A01 T02910198  RH  061%=      5-min Rain = 0
KJTS 160140Z 15012KT 29/20 A297 RMK A01 T02940200  RH  061%=      5-min Rain = 0
KJTS 160145Z 15010KT 30/20 A2971 RMK A01 T02950201  RH  061%=      5-min Rain = 0
KJTS 160150Z 15009KT 30/20 A2971 RMK A01 T02950201  RH  061%=      5-min Rain = 0
KJTS 160155Z 17006G11KT 30/20 A2971 RMK A01 T02950202  RH  061%=      5-min Rain = 0
KJTS 160200Z 17008G15KT 30/20 A2971 RMK A01 T02970200  RH  059%=      5-min Rain = 0
KJTS 160205Z 17009G18KT 30/20 A2972 RMK A01 T03000199  RH  058%=      5-min Rain = 0
KJTS 160210Z 16007G13KT 30/20 A2972 RMK A01 T03010199  RH  058%=      5-min Rain = 0
KJTS 160215Z 08003KT 30/20 A2973 RMK A01 T02990200  RH  059%=      5-min Rain = 0
KJTS 160220Z 24001KT 29/19 A2973 RMK A01 T02940192  RH  057%=      5-min Rain = 0
KJTS 160225Z 04008G13KT 29/17 A2972 RMK A01 T02850170  RH  052%=      5-min Rain = 0
KJTS 160230Z 04010G16KT 28/16 A2972 RMK A01 T02750161  RH  052%=      5-min Rain = 0
KJTS 160235Z 36013G20KT 27/16 A2974 RMK A01 T02680157  RH  053%=      5-min Rain = 0
KJTS 160240Z 36019G27KT 26/15 A2975 RMK A01 T02550146  RH  053%=      5-min Rain = 0
KJTS 160245Z 00019G26KT 24/14 A2976 RMK A01 T02440144  RH  056%=      5-min Rain = 0
KJTS 160250Z 35017G26KT 24/14 A2977 RMK A01 T02430138  RH  054%=      5-min Rain = 0
KJTS 160255Z 36019G26KT 24/14 A2979 RMK A01 T02400140  RH  056%=      5-min Rain = 0
KJTS 160300Z 00018G26KT 23/15 A2979 RMK A01 T02330147  RH  061%=      5-min Rain = 0
KJTS 160305Z 02014G27KT 23/15 A2979 RMK A01 T02250150  RH  066%=      5-min Rain = 0
KJTS 160310Z 02012G19KT 23/15 A2979 RMK A01 T02250150  RH  066%=      5-min Rain = 0
KJTS 160315Z 03008KT 23/15 A298 RMK A01 T02270151  RH  065%=      5-min Rain = 0
KJTS 160320Z 05009KT 23/15 A2978 RMK A01 T02270151  RH  065%=      5-min Rain = 0
KJTS 160325Z 05009G15KT 22/16 A2977 RMK A01 T02190156  RH  071%=      5-min Rain = 0.01
KJTS 160330Z 06011KT 21/16 A2979 RMK A01 T02110159  RH  076%=      5-min Rain = 0
KJTS 160335Z 08010KT 21/16 A2981 RMK A01 T02080161  RH  078%=      5-min Rain = 0
KJTS 160340Z 10012KT 20/16 A2981 RMK A01 T02010160  RH  081%=      5-min Rain = 0.01
KJTS 160345Z 14007KT 19/16 A2984 RMK A01 T01930161  RH  086%=      5-min Rain = 0.04
KJTS 160350Z 07009G14KT 19/16 A2983 RMK A01 T01870160  RH  088%=      5-min Rain = 0.02
KJTS 160355Z 07013KT 18/16 A2982 RMK A01 T01820159  RH  091%=      5-min Rain = 0
KJTS 160400Z 06013KT 18/16 A2982 RMK A01 T01800155  RH  089%=      5-min Rain = 0
KJTS 160405Z 05012G18KT 18/15 A2981 RMK A01 T01830154  RH  087%=      5-min Rain = 0
KJTS 160410Z 07011KT 18/16 A2981 RMK A01 T01820156  RH  089%=      5-min Rain = 0
KJTS 160415Z 07011KT 18/16 A298 RMK A01 T01820157  RH  089%=      5-min Rain = 0
KJTS 160420Z 05008KT 18/16 A298 RMK A01 T01830159  RH  090%=      5-min Rain = 0
KJTS 160425Z 03007KT 18/16 A2981 RMK A01 T01840160  RH  090%=      5-min Rain = 0
KJTS 160430Z 04009KT 19/16 A2981 RMK A01 T01850161  RH  090%=      5-min Rain = 0
KJTS 160435Z 05008KT 19/16 A2982 RMK A01 T01860161  RH  090%=      5-min Rain = 0
KJTS 160440Z 05008KT 19/16 A2982 RMK A01 T01870162  RH  090%=      5-min Rain = 0
KJTS 160445Z 04008KT 19/16 A2982 RMK A01 T01880163  RH  089%=      5-min Rain = 0
KJTS 160450Z 03007KT 19/16 A2982 RMK A01 T01890163  RH  089%=      5-min Rain = 0
KJTS 160455Z 03007KT 19/16 A2982 RMK A01 T01890162  RH  088%=      5-min Rain = 0

Page generated in 0.0092 seconds.